createdAt,value
2019-06-10T00:02:07.385Z,7.75
2019-06-10T00:04:41.582Z,6.28
2019-06-10T00:07:13.915Z,11.90
2019-06-10T00:09:47.823Z,6.92
2019-06-10T00:12:20.964Z,4.47
2019-06-10T00:14:51.728Z,6.67
2019-06-10T00:17:22.481Z,7.97
2019-06-10T00:19:53.224Z,7.22
2019-06-10T00:22:23.995Z,6.20
2019-06-10T00:24:55.153Z,4.83
2019-06-10T00:27:25.777Z,4.97
2019-06-10T00:29:56.642Z,4.47
2019-06-10T00:32:27.581Z,5.33
2019-06-10T00:34:59.386Z,7.45
2019-06-10T00:37:31.534Z,4.72
2019-06-10T00:40:05.354Z,6.15
2019-06-10T00:42:35.163Z,7.00
2019-06-10T00:45:10.930Z,6.67
2019-06-10T00:47:41.301Z,9.00
2019-06-10T00:50:14.528Z,5.55
2019-06-10T00:52:45.358Z,7.10
2019-06-10T00:55:16.536Z,8.03
2019-06-10T00:57:51.001Z,6.10
2019-06-10T01:00:25.539Z,5.08
2019-06-10T01:02:54.066Z,6.53
2019-06-10T01:05:25.083Z,5.70
2019-06-10T01:07:55.915Z,5.67
2019-06-10T01:10:26.548Z,6.20
2019-06-10T01:13:00.804Z,5.25
2019-06-10T01:15:31.748Z,4.67
2019-06-10T01:18:03.483Z,6.75
2019-06-10T01:20:34.443Z,5.85
2019-06-10T01:23:07.011Z,6.83
2019-06-10T01:25:37.841Z,9.55
2019-06-10T01:28:12.109Z,7.97
2019-06-10T01:30:41.379Z,7.83
2019-06-10T01:33:14.387Z,7.78
2019-06-10T01:35:44.776Z,7.08
2019-06-10T01:38:16.299Z,6.87
2019-06-10T01:40:47.016Z,7.50
2019-06-10T01:43:18.460Z,8.43
2019-06-10T01:45:51.147Z,9.43
2019-06-10T01:48:21.368Z,6.97
2019-06-10T01:50:52.196Z,6.03
2019-06-10T01:53:22.655Z,7.33
2019-06-10T01:55:54.794Z,9.03
2019-06-10T01:58:25.295Z,12.78
2019-06-10T02:01:15.641Z,9.10
2019-06-10T02:06:16.577Z,9.35
2019-06-10T02:08:47.213Z,6.83
2019-06-10T02:11:22.786Z,9.23
2019-06-10T02:13:52.818Z,9.35
2019-06-10T02:16:24.199Z,10.43
2019-06-10T02:19:00.484Z,10.05
2019-06-10T02:21:27.560Z,8.83
2019-06-10T02:23:58.074Z,8.95
2019-06-10T02:26:30.850Z,10.05
2019-06-10T02:29:01.420Z,11.30
2019-06-10T02:31:37.440Z,8.95
2019-06-10T02:34:04.746Z,11.22
2019-06-10T02:36:37.017Z,12.60
2019-06-10T02:39:09.445Z,12.70
2019-06-10T02:41:44.168Z,9.50
2019-06-10T02:44:17.186Z,9.75
2019-06-10T02:46:45.154Z,12.35
2019-06-10T02:49:29.709Z,10.50
2019-06-10T02:51:48.130Z,9.40
2019-06-10T02:54:20.844Z,18.35
2019-06-10T02:56:53.765Z,12.63
2019-06-10T02:59:27.508Z,11.93
2019-06-10T03:01:56.062Z,14.85
2019-06-10T03:04:32.348Z,11.03
2019-06-10T03:06:59.260Z,11.28
2019-06-10T03:09:34.686Z,12.03
2019-06-10T03:12:04.767Z,10.78
2019-06-10T03:14:35.011Z,9.38
2019-06-10T03:17:12.451Z,10.72
2019-06-10T03:19:50.122Z,8.08
2019-06-10T03:22:16.035Z,15.23
2019-06-10T03:24:47.920Z,9.58
2019-06-10T03:27:18.660Z,9.38
2019-06-10T03:29:49.232Z,16.62
2019-06-10T03:32:23.193Z,17.17
2019-06-10T03:34:54.758Z,15.32
2019-06-10T03:37:26.865Z,11.83
2019-06-10T03:39:58.670Z,14.03
2019-06-10T03:42:29.220Z,12.35
2019-06-10T03:45:00.076Z,13.40
2019-06-10T03:47:32.476Z,17.25
2019-06-10T03:50:03.417Z,17.77
2019-06-10T03:52:33.985Z,14.93
2019-06-10T03:55:06.485Z,11.93
2019-06-10T03:57:37.255Z,17.82
2019-06-10T04:00:11.284Z,13.13
2019-06-10T04:02:42.822Z,17.27
2019-06-10T04:05:13.488Z,12.33
2019-06-10T04:07:44.522Z,8.53
2019-06-10T04:10:15.613Z,10.20
2019-06-10T04:12:46.449Z,11.57
2019-06-10T04:15:17.666Z,15.15
2019-06-10T04:17:48.264Z,8.63
2019-06-10T04:20:23.062Z,10.55
2019-06-10T04:22:52.642Z,12.05
2019-06-10T04:25:27.613Z,10.10
2019-06-10T04:27:56.854Z,7.83
2019-06-10T04:30:28.981Z,10.38
2019-06-10T04:33:02.168Z,9.38
2019-06-10T04:35:33.648Z,11.78
2019-06-10T04:38:04.353Z,14.58
2019-06-10T04:40:35.222Z,11.12
2019-06-10T04:43:06.505Z,8.40
2019-06-10T04:45:37.298Z,11.12
2019-06-10T04:48:07.951Z,8.18
2019-06-10T04:50:45.457Z,11.93
2019-06-10T04:53:12.918Z,8.30
2019-06-10T04:55:43.369Z,8.40
2019-06-10T04:58:14.256Z,10.08
2019-06-10T05:00:44.893Z,6.58
2019-06-10T05:03:15.892Z,7.42
2019-06-10T05:05:46.631Z,9.38
2019-06-10T05:08:17.507Z,10.03
2019-06-10T05:10:49.977Z,9.73
2019-06-10T05:13:23.802Z,11.15
2019-06-10T05:15:53.927Z,9.60
2019-06-10T05:18:25.935Z,8.58
2019-06-10T05:21:02.224Z,12.60
2019-06-10T05:23:33.392Z,11.28
2019-06-10T05:26:04.560Z,9.78
2019-06-10T05:28:35.567Z,9.60
2019-06-10T05:31:06.508Z,11.50
2019-06-10T05:33:37.333Z,10.10
2019-06-10T05:36:08.078Z,8.55
2019-06-10T05:38:43.154Z,9.48
2019-06-10T05:41:13.528Z,13.83
2019-06-10T05:43:44.762Z,7.20
2019-06-10T05:46:16.094Z,10.98
2019-06-10T05:48:46.805Z,9.35
2019-06-10T05:51:17.915Z,8.33
2019-06-10T05:53:48.707Z,12.82
2019-06-10T05:56:21.939Z,9.63
2019-06-10T05:59:04.368Z,9.18
2019-06-10T06:01:38.683Z,17.17
2019-06-10T06:04:12.728Z,11.45
2019-06-10T06:06:45.115Z,9.45
2019-06-10T06:09:15.929Z,12.28
2019-06-10T06:11:46.836Z,9.20
2019-06-10T06:14:17.740Z,8.70
2019-06-10T06:16:48.372Z,10.30
2019-06-10T06:19:19.198Z,9.85
2019-06-10T06:21:49.734Z,11.53
2019-06-10T06:24:22.057Z,16.02
2019-06-10T06:26:57.608Z,14.55
2019-06-10T06:29:28.884Z,13.15
2019-06-10T06:31:59.776Z,12.45
2019-06-10T06:34:32.680Z,15.70
2019-06-10T06:37:02.783Z,13.05
2019-06-10T06:39:35.127Z,14.00
2019-06-10T06:42:06.879Z,14.85
2019-06-10T06:44:38.133Z,12.75
2019-06-10T06:47:10.075Z,12.20
2019-06-10T06:49:42.561Z,15.00
2019-06-10T06:52:13.085Z,13.32
2019-06-10T06:54:44.209Z,8.20
2019-06-10T06:57:14.910Z,11.43
2019-06-10T06:59:45.808Z,12.07
2019-06-10T07:02:16.509Z,9.80
2019-06-10T07:04:47.775Z,11.50
2019-06-10T07:07:22.087Z,12.98
2019-06-10T07:09:55.277Z,10.90
2019-06-10T07:12:25.966Z,12.13
2019-06-10T07:14:56.579Z,12.98
2019-06-10T07:17:28.980Z,12.33
2019-06-10T07:19:59.621Z,16.75
2019-06-10T07:22:33.717Z,12.75
2019-06-10T07:25:06.645Z,12.15
2019-06-10T07:27:40.117Z,13.90
2019-06-10T07:30:14.282Z,10.28
2019-06-10T07:32:47.143Z,11.20
2019-06-10T07:35:15.894Z,12.35
2019-06-10T07:37:46.662Z,14.10
2019-06-10T07:40:18.979Z,11.22
2019-06-10T07:42:49.590Z,12.00
2019-06-10T07:45:22.135Z,14.40
2019-06-10T07:47:52.831Z,14.80
2019-06-10T07:50:23.636Z,12.53
2019-06-10T07:52:54.577Z,11.08
2019-06-10T07:55:25.352Z,13.08
2019-06-10T07:57:56.772Z,12.35
2019-06-10T08:00:27.662Z,16.80
2019-06-10T08:02:58.228Z,13.80
2019-06-10T08:05:29.075Z,10.82
2019-06-10T08:08:02.679Z,17.00
2019-06-10T08:10:32.788Z,12.75
2019-06-10T08:13:03.601Z,11.93
2019-06-10T08:15:35.476Z,11.57
2019-06-10T08:18:07.453Z,10.65
2019-06-10T08:20:47.616Z,15.88
2019-06-10T08:23:23.367Z,10.63
2019-06-10T08:25:57.643Z,11.43
2019-06-10T08:28:26.472Z,11.63
2019-06-10T08:30:57.422Z,12.07
2019-06-10T08:33:28.288Z,16.73
2019-06-10T08:36:00.650Z,11.78
2019-06-10T08:38:33.451Z,11.50
2019-06-10T08:41:04.431Z,10.85
2019-06-10T08:43:36.441Z,14.90
2019-06-10T08:46:07.430Z,13.13
2019-06-10T08:48:39.059Z,16.10
2019-06-10T08:51:12.316Z,15.95
2019-06-10T08:53:46.177Z,18.65
2019-06-10T08:56:14.758Z,16.60
2019-06-10T08:58:48.877Z,8.83
2019-06-10T09:01:18.806Z,15.38
2019-06-10T09:03:53.020Z,13.38
2019-06-10T09:06:23.219Z,7.62
2019-06-10T09:08:54.592Z,8.38
2019-06-10T09:11:26.681Z,10.28
2019-06-10T09:13:57.184Z,8.60
2019-06-10T09:16:28.121Z,11.28
2019-06-10T09:19:02.099Z,10.98
2019-06-10T09:21:32.983Z,10.88
2019-06-10T09:24:04.116Z,11.57
2019-06-10T09:26:35.016Z,11.08
2019-06-10T09:29:05.710Z,10.03
2019-06-10T09:31:39.452Z,10.23
2019-06-10T09:34:12.720Z,9.73
2019-06-10T09:36:46.632Z,14.23
2019-06-10T09:39:15.897Z,7.37
2019-06-10T09:41:55.399Z,14.18
2019-06-10T09:44:18.920Z,9.48
2019-06-10T09:46:55.828Z,7.62
2019-06-10T09:49:25.785Z,8.70
2019-06-10T09:51:57.679Z,8.80
2019-06-10T09:54:28.948Z,7.80
2019-06-10T09:57:02.249Z,5.22
2019-06-10T09:59:32.242Z,5.62
2019-06-10T10:02:06.411Z,7.42
2019-06-10T10:04:37.499Z,7.30
2019-06-10T10:07:08.248Z,6.33
2019-06-10T10:09:39.372Z,7.83
2019-06-10T10:12:14.198Z,8.58
2019-06-10T10:14:48.135Z,8.25
2019-06-10T10:17:17.690Z,5.12
2019-06-10T10:19:50.297Z,7.08
2019-06-10T10:22:22.883Z,7.08
2019-06-10T10:24:56.697Z,7.92
2019-06-10T10:27:25.752Z,5.87
2019-06-10T10:29:57.394Z,11.30
2019-06-10T10:32:29.176Z,8.23
2019-06-10T10:35:02.761Z,7.08
2019-06-10T10:37:32.828Z,9.05
2019-06-10T10:40:05.711Z,6.83
2019-06-10T10:42:45.514Z,6.78
2019-06-10T10:45:13.069Z,6.97
2019-06-10T10:47:44.873Z,6.97
2019-06-10T10:50:22.577Z,4.97
2019-06-10T10:52:53.932Z,5.75
2019-06-10T10:55:24.589Z,5.12
2019-06-10T10:57:55.894Z,5.75
2019-06-10T11:00:32.559Z,5.17
2019-06-10T11:03:02.757Z,6.22
2019-06-10T11:06:00.494Z,5.28
2019-06-10T11:08:27.578Z,4.85
2019-06-10T11:11:03.624Z,6.03
2019-06-10T11:13:35.773Z,8.33
2019-06-10T11:16:06.610Z,3.70
2019-06-10T11:18:39.077Z,4.75
2019-06-10T11:21:09.800Z,4.85
2019-06-10T11:23:43.210Z,3.95
2019-06-10T11:26:13.459Z,5.92
2019-06-10T11:28:45.285Z,4.25
2019-06-10T11:31:15.993Z,3.98
2019-06-10T11:33:47.022Z,4.80
2019-06-10T11:36:19.375Z,3.77
2019-06-10T11:38:51.168Z,4.50
2019-06-10T11:41:23.700Z,5.35
2019-06-10T11:43:57.755Z,4.58
2019-06-10T11:46:26.633Z,5.47
2019-06-10T11:48:58.964Z,5.37
2019-06-10T11:51:29.991Z,4.75
2019-06-10T11:54:03.268Z,7.53
2019-06-10T11:56:33.758Z,6.45
2019-06-10T11:59:09.372Z,5.85
2019-06-10T12:01:37.189Z,4.65
2019-06-10T12:04:08.066Z,5.42
2019-06-10T12:06:39.002Z,5.05
2019-06-10T12:09:13.698Z,6.42
2019-06-10T12:11:44.763Z,5.70
2019-06-10T12:14:15.380Z,5.72
2019-06-10T12:19:18.271Z,5.83
2019-06-10T12:21:49.764Z,3.80
2019-06-10T12:24:22.901Z,4.92
2019-06-10T12:26:55.261Z,3.77
2019-06-10T12:29:24.845Z,5.75
2019-06-10T12:31:58.530Z,7.28
2019-06-10T12:34:27.855Z,5.83
2019-06-10T12:37:07.464Z,8.90
2019-06-10T12:39:31.719Z,4.65
2019-06-10T12:42:06.093Z,6.42
2019-06-10T12:44:35.057Z,4.25
2019-06-10T12:47:08.213Z,6.65
2019-06-10T12:49:38.358Z,6.75
2019-06-10T12:52:09.562Z,6.85
2019-06-10T12:54:42.341Z,6.20
2019-06-10T12:57:16.544Z,5.60
2019-06-10T12:59:47.415Z,5.58
2019-06-10T13:02:23.103Z,7.45
2019-06-10T13:04:52.235Z,9.95
2019-06-10T13:07:23.878Z,5.90
2019-06-10T13:09:57.772Z,4.70
2019-06-10T13:12:32.575Z,4.03
2019-06-10T13:15:05.066Z,7.72
2019-06-10T13:17:35.519Z,5.62
2019-06-10T13:20:08.273Z,4.87
2019-06-10T13:22:38.932Z,4.65
2019-06-10T13:25:09.599Z,4.92
2019-06-10T13:27:42.670Z,5.10
2019-06-10T13:30:12.952Z,7.25
2019-06-10T13:32:43.966Z,8.93
2019-06-10T13:35:14.834Z,6.30
2019-06-10T13:37:45.918Z,3.00
2019-06-10T13:40:17.360Z,5.42
2019-06-10T13:42:48.152Z,6.05
2019-06-10T13:45:19.232Z,4.80
2019-06-10T13:47:49.851Z,3.70
2019-06-10T13:50:22.081Z,2.10
2019-06-10T13:52:53.320Z,3.77
2019-06-10T13:55:24.135Z,3.22
2019-06-10T13:57:54.841Z,4.75
2019-06-10T14:00:40.656Z,6.25
2019-06-10T14:02:59.936Z,5.95
2019-06-10T14:05:34.071Z,3.72
2019-06-10T14:08:06.404Z,6.67
2019-06-10T14:10:36.710Z,5.87
2019-06-10T14:13:09.540Z,4.80
2019-06-10T14:15:42.547Z,7.03
2019-06-10T14:18:15.152Z,5.60
2019-06-10T14:20:45.535Z,4.65
2019-06-10T14:23:18.973Z,3.95
2019-06-10T14:25:51.973Z,6.00
2019-06-10T14:28:38.088Z,5.87
2019-06-10T14:30:54.544Z,7.15
2019-06-10T14:33:25.914Z,7.15
2019-06-10T14:35:56.603Z,6.90
2019-06-10T14:38:32.551Z,5.58
2019-06-10T14:41:04.771Z,5.65
2019-06-10T14:43:35.507Z,5.83
2019-06-10T14:46:07.358Z,6.28
2019-06-10T14:48:38.321Z,5.90
2019-06-10T14:51:08.957Z,8.43
2019-06-10T14:53:39.607Z,5.62
2019-06-10T14:56:16.006Z,10.18
2019-06-10T14:58:43.037Z,12.33
2019-06-10T15:01:23.735Z,12.23
2019-06-10T15:03:49.059Z,10.15
2019-06-10T15:06:20.524Z,9.30
2019-06-10T15:08:55.309Z,10.90
2019-06-10T15:11:27.677Z,10.55
2019-06-10T15:13:57.993Z,11.30
2019-06-10T15:16:28.985Z,10.48
2019-06-10T15:19:11.735Z,7.53
2019-06-10T15:21:32.414Z,6.40
2019-06-10T15:24:04.868Z,8.48
2019-06-10T15:26:36.266Z,8.00
2019-06-10T15:29:06.815Z,10.88
2019-06-10T15:31:37.574Z,12.58
2019-06-10T15:34:08.583Z,9.10
2019-06-10T15:36:39.430Z,9.78
2019-06-10T15:39:11.703Z,11.55
2019-06-10T15:41:43.021Z,9.58
2019-06-10T15:44:27.886Z,9.30
2019-06-10T15:46:46.899Z,11.68
2019-06-10T15:49:19.748Z,12.03
2019-06-10T15:51:49.808Z,8.90
2019-06-10T15:54:25.146Z,11.70
2019-06-10T15:56:56.534Z,9.98
2019-06-10T15:59:25.505Z,10.03
2019-06-10T16:01:56.305Z,16.30
2019-06-10T16:04:29.722Z,14.58
2019-06-10T16:06:59.410Z,14.83
2019-06-10T16:09:32.167Z,15.20
2019-06-10T16:12:02.902Z,11.83
2019-06-10T16:14:35.517Z,17.80
2019-06-10T16:17:06.614Z,14.38
2019-06-10T16:19:38.375Z,10.70
2019-06-10T16:22:09.163Z,14.80
2019-06-10T16:24:42.164Z,10.85
2019-06-10T16:27:13.857Z,16.35
2019-06-10T16:29:44.594Z,13.18
2019-06-10T16:32:16.350Z,17.55
2019-06-10T16:34:46.917Z,14.43
2019-06-10T16:37:19.170Z,14.10
2019-06-10T16:39:52.415Z,16.42
2019-06-10T16:42:25.685Z,15.50
2019-06-10T16:44:54.797Z,22.15
2019-06-10T16:47:27.388Z,17.60
2019-06-10T16:49:58.450Z,14.63
2019-06-10T16:52:34.070Z,21.60
2019-06-10T16:55:03.233Z,17.73
2019-06-10T16:57:33.893Z,15.20
2019-06-10T17:00:11.221Z,30.43
2019-06-10T17:02:37.135Z,23.40
2019-06-10T17:05:08.380Z,16.77
2019-06-10T17:07:39.283Z,22.20
2019-06-10T17:10:12.555Z,16.73
2019-06-10T17:12:42.710Z,30.40
2019-06-10T17:15:13.937Z,24.52
2019-06-10T17:17:44.684Z,28.87
2019-06-10T17:20:15.590Z,20.43
2019-06-10T17:22:46.324Z,56.75
2019-06-10T17:25:19.059Z,62.20
2019-06-10T17:27:49.769Z,34.48
2019-06-10T17:30:23.679Z,18.67
2019-06-10T17:32:54.494Z,26.75
2019-06-10T17:35:26.189Z,31.07
2019-06-10T17:37:57.018Z,24.92
2019-06-10T17:40:28.041Z,45.43
2019-06-10T17:43:02.268Z,31.25
2019-06-10T17:45:32.264Z,49.35
2019-06-10T17:48:04.343Z,29.02
2019-06-10T17:50:35.197Z,99.15
2019-06-10T17:53:06.024Z,30.92
2019-06-10T17:55:39.773Z,107.72
2019-06-10T17:58:12.954Z,81.15
2019-06-10T18:00:44.198Z,44.33
2019-06-10T18:03:15.415Z,63.60
2019-06-10T18:05:46.072Z,109.83
2019-06-10T18:08:16.669Z,116.55
2019-06-10T18:10:47.330Z,79.30
2019-06-10T18:13:18.447Z,112.47
2019-06-10T18:15:48.981Z,42.38
2019-06-10T18:18:19.624Z,61.18
2019-06-10T18:20:53.583Z,61.83
2019-06-10T18:23:23.125Z,100.50
2019-06-10T18:25:56.004Z,95.53
2019-06-10T18:28:27.024Z,79.55
2019-06-10T18:30:57.622Z,66.07
2019-06-10T18:33:29.574Z,51.50
2019-06-10T18:36:00.194Z,50.50
2019-06-10T18:38:33.938Z,58.30
2019-06-10T18:41:03.381Z,53.85
2019-06-10T18:43:35.345Z,99.65
2019-06-10T18:46:06.604Z,93.35
2019-06-10T18:48:38.171Z,91.12
2019-06-10T18:51:12.492Z,66.95
2019-06-10T18:53:43.196Z,62.35
2019-06-10T18:56:13.998Z,75.57
2019-06-10T18:58:44.614Z,80.45
2019-06-10T19:01:15.386Z,81.10
2019-06-10T19:03:46.174Z,64.12
2019-06-10T19:06:16.885Z,120.62
2019-06-10T19:08:47.515Z,90.92
2019-06-10T19:11:18.762Z,141.10
2019-06-10T19:13:49.873Z,117.00
2019-06-10T19:16:23.289Z,107.85
2019-06-10T19:18:53.612Z,122.98
2019-06-10T19:21:24.762Z,123.22
2019-06-10T19:23:55.927Z,116.03
2019-06-10T19:26:26.813Z,117.45
2019-06-10T19:28:57.865Z,106.32
2019-06-10T19:31:28.666Z,104.97
2019-06-10T19:33:59.504Z,71.47
2019-06-10T19:36:31.441Z,80.77
2019-06-10T19:39:02.404Z,102.90
2019-06-10T19:41:38.052Z,65.40
2019-06-10T19:44:07.370Z,64.80
2019-06-10T19:46:39.708Z,81.28
2019-06-10T19:49:13.368Z,88.47
2019-06-10T19:51:46.279Z,62.58
2019-06-10T19:54:18.031Z,37.88
2019-06-10T19:56:48.811Z,48.55
2019-06-10T19:59:20.198Z,50.23
2019-06-10T20:01:53.892Z,69.32
2019-06-10T20:04:23.589Z,55.12
2019-06-10T20:06:54.330Z,69.10
2019-06-10T20:09:24.931Z,77.08
2019-06-10T20:11:55.704Z,61.13
2019-06-10T20:14:26.413Z,63.52
2019-06-10T20:16:57.194Z,80.65
2019-06-10T20:19:28.260Z,90.35
2019-06-10T20:21:59.166Z,53.33
2019-06-10T20:24:29.827Z,59.77
2019-06-10T20:27:03.045Z,49.08
2019-06-10T20:29:33.506Z,44.70
2019-06-10T20:32:04.662Z,69.10
2019-06-10T20:34:35.501Z,49.85
2019-06-10T20:37:09.352Z,54.40
2019-06-10T20:39:42.726Z,40.38
2019-06-10T20:42:12.960Z,87.20
2019-06-10T20:44:45.916Z,86.30
2019-06-10T20:47:16.076Z,58.17
2019-06-10T20:49:50.821Z,102.65
2019-06-10T20:52:22.067Z,67.90
2019-06-10T20:54:53.248Z,77.65
2019-06-10T20:57:26.160Z,86.65
2019-06-10T21:00:00.188Z,78.30
2019-06-10T21:02:33.767Z,132.20
2019-06-10T21:05:04.508Z,88.47
2019-06-10T21:07:39.154Z,123.47
2019-06-10T21:10:10.194Z,120.80
2019-06-10T21:12:44.344Z,91.45
2019-06-10T21:15:14.405Z,120.08
2019-06-10T21:17:46.339Z,48.42
2019-06-10T21:20:17.216Z,86.10
2019-06-10T21:22:49.115Z,88.67
2019-06-10T21:25:19.655Z,44.42
2019-06-10T21:27:53.851Z,55.80
2019-06-10T21:30:37.523Z,33.67
2019-06-10T21:32:55.194Z,28.27
2019-06-10T21:35:26.086Z,20.00
2019-06-10T21:37:59.050Z,27.35
2019-06-10T21:40:29.704Z,37.28
2019-06-10T21:43:02.609Z,104.58
2019-06-10T21:45:32.949Z,54.08
2019-06-10T21:48:03.924Z,21.90
2019-06-10T21:50:34.759Z,28.80
2019-06-10T21:53:05.622Z,19.85
2019-06-10T21:55:36.397Z,21.12
2019-06-10T21:58:08.032Z,21.02
2019-06-10T22:01:03.251Z,13.65
2019-06-10T22:03:23.416Z,47.15
2019-06-10T22:05:54.452Z,10.10
2019-06-10T22:08:26.040Z,8.43
2019-06-10T22:11:02.310Z,18.60
2019-06-10T22:13:32.829Z,11.03
2019-06-10T22:16:03.769Z,12.93
2019-06-10T22:18:34.457Z,12.60
2019-06-10T22:21:07.525Z,9.33
2019-06-10T22:23:38.372Z,20.70
2019-06-10T22:26:09.497Z,14.65
2019-06-10T22:28:40.403Z,13.03
2019-06-10T22:31:19.811Z,8.03
2019-06-10T22:33:45.213Z,7.50
2019-06-10T22:36:15.885Z,10.65
2019-06-10T22:38:47.816Z,7.22
2019-06-10T22:41:18.817Z,6.87
2019-06-10T22:43:49.902Z,4.80
2019-06-10T22:46:22.975Z,6.95
2019-06-10T22:48:53.412Z,10.90
2019-06-10T22:51:24.374Z,11.22
2019-06-10T22:53:58.199Z,15.55
2019-06-10T22:56:27.514Z,9.88
2019-06-10T22:58:58.306Z,4.12
2019-06-10T23:01:37.443Z,8.15
2019-06-10T23:04:03.859Z,7.08
2019-06-10T23:06:34.732Z,3.92
2019-06-10T23:09:05.948Z,2.62
2019-06-10T23:11:36.523Z,3.00
2019-06-10T23:14:09.195Z,3.08
2019-06-10T23:16:43.430Z,7.85
2019-06-10T23:19:14.612Z,7.12
2019-06-10T23:21:47.136Z,7.00
2019-06-10T23:24:18.259Z,4.17
2019-06-10T23:26:49.729Z,6.22
2019-06-10T23:29:22.654Z,3.10
2019-06-10T23:32:00.699Z,5.50
2019-06-10T23:34:25.124Z,5.25
2019-06-10T23:36:57.103Z,2.75
2019-06-10T23:39:28.003Z,4.08
2019-06-10T23:41:59.554Z,11.22
2019-06-10T23:44:32.999Z,7.00
2019-06-10T23:47:04.385Z,10.35
2019-06-10T23:49:35.936Z,6.35
2019-06-10T23:52:06.911Z,5.75
2019-06-10T23:54:37.400Z,8.28
2019-06-10T23:57:08.287Z,9.38
2019-06-10T23:59:42.620Z,14.05
